createdAt,value
2023-03-06T00:01:20.849Z,21.64
2023-03-06T00:06:23.563Z,21.59
2023-03-06T00:11:26.385Z,21.54
2023-03-06T00:16:30.483Z,21.52
2023-03-06T00:21:33.355Z,21.45
2023-03-06T00:26:36.632Z,21.43
2023-03-06T00:31:40.745Z,21.38
2023-03-06T00:36:43.449Z,21.32
2023-03-06T00:41:47.159Z,21.29
2023-03-06T00:46:51.293Z,21.25
2023-03-06T00:51:54.099Z,21.21
2023-03-06T00:56:56.788Z,21.16
2023-03-06T01:02:01.203Z,21.12
2023-03-06T01:07:04.326Z,21.10
2023-03-06T01:12:07.977Z,21.06
2023-03-06T01:17:12.287Z,21.03
2023-03-06T01:22:15.224Z,21.00
2023-03-06T01:27:18.075Z,20.96
2023-03-06T01:32:22.477Z,20.93
2023-03-06T01:37:25.736Z,20.90
2023-03-06T01:42:28.818Z,20.86
2023-03-06T01:47:33.042Z,20.83
2023-03-06T01:52:40.065Z,20.80
2023-03-06T01:57:46.535Z,20.77
2023-03-06T02:02:54.930Z,20.72
2023-03-06T02:07:58.829Z,20.70
2023-03-06T02:13:02.025Z,20.69
2023-03-06T02:18:06.214Z,20.66
2023-03-06T02:23:15.781Z,20.63
2023-03-06T02:28:22.574Z,20.59
2023-03-06T02:33:28.628Z,20.59
2023-03-06T02:38:37.517Z,20.57
2023-03-06T02:43:45.013Z,20.54
2023-03-06T02:48:47.977Z,20.53
2023-03-06T02:53:50.800Z,20.51
2023-03-06T02:58:54.960Z,20.49
2023-03-06T03:03:57.947Z,20.47
2023-03-06T03:09:00.848Z,20.45
2023-03-06T03:14:06.370Z,20.44
2023-03-06T03:19:09.194Z,20.42
2023-03-06T03:24:11.987Z,20.40
2023-03-06T03:29:16.115Z,20.37
2023-03-06T03:34:19.669Z,20.33
2023-03-06T03:39:23.250Z,20.32
2023-03-06T03:44:27.408Z,20.31
2023-03-06T03:49:30.975Z,20.28
2023-03-06T03:54:35.418Z,20.29
2023-03-06T03:59:39.678Z,20.27
2023-03-06T04:05:21.042Z,20.23
2023-03-06T04:10:24.829Z,20.23
2023-03-06T04:15:29.130Z,20.20
2023-03-06T04:20:32.155Z,20.19
2023-03-06T04:25:36.627Z,20.16
2023-03-06T04:30:44.104Z,20.13
2023-03-06T04:35:47.267Z,20.09
2023-03-06T04:40:55.729Z,20.06
2023-03-06T04:46:00.466Z,20.04
2023-03-06T04:51:03.428Z,20.03
2023-03-06T04:56:07.072Z,20.00
2023-03-06T05:01:11.277Z,19.99
2023-03-06T05:06:14.059Z,19.99
2023-03-06T05:11:16.784Z,19.98
2023-03-06T05:16:20.944Z,19.96
2023-03-06T05:21:23.684Z,19.94
2023-03-06T05:26:26.426Z,19.93
2023-03-06T05:31:30.595Z,19.92
2023-03-06T05:36:33.354Z,19.89
2023-03-06T05:41:36.639Z,19.90
2023-03-06T05:46:40.708Z,19.87
2023-03-06T05:51:43.441Z,19.84
2023-03-06T05:56:46.115Z,19.83
2023-03-06T06:01:50.149Z,19.81
2023-03-06T06:06:54.542Z,19.80
2023-03-06T06:11:59.855Z,19.78
2023-03-06T06:17:03.945Z,19.78
2023-03-06T06:22:06.758Z,19.77
2023-03-06T06:27:09.560Z,19.75
2023-03-06T06:32:13.596Z,19.74
2023-03-06T06:37:16.341Z,19.74
2023-03-06T06:42:32.626Z,19.74
2023-03-06T06:47:41.606Z,19.74
2023-03-06T06:52:44.624Z,19.72
2023-03-06T06:57:47.407Z,19.72
2023-03-06T07:02:51.449Z,19.71
2023-03-06T07:07:54.207Z,19.69
2023-03-06T07:12:56.922Z,19.69
2023-03-06T07:18:01.353Z,16.86
2023-03-06T07:23:04.273Z,13.72
2023-03-06T07:28:07.138Z,15.54
2023-03-06T07:33:11.255Z,17.82
2023-03-06T07:38:14.523Z,18.38
2023-03-06T07:43:19.571Z,18.63
2023-03-06T07:48:32.801Z,18.78
2023-03-06T07:53:36.116Z,18.86
2023-03-06T07:58:42.215Z,18.95
2023-03-06T08:03:47.065Z,19.01
2023-03-06T08:08:51.609Z,19.04
2023-03-06T08:13:54.758Z,19.07
2023-03-06T08:18:58.857Z,19.11
2023-03-06T08:24:01.601Z,19.13
2023-03-06T08:29:04.705Z,19.15
2023-03-06T08:34:11.760Z,19.17
2023-03-06T08:39:15.058Z,19.18
2023-03-06T08:44:17.754Z,19.20
2023-03-06T08:49:22.203Z,19.21
2023-03-06T08:54:24.947Z,19.22
2023-03-06T08:59:27.803Z,19.21
2023-03-06T09:04:32.128Z,19.22
2023-03-06T09:09:34.985Z,19.27
2023-03-06T09:14:37.724Z,19.42
2023-03-06T09:19:41.822Z,19.62
2023-03-06T09:24:44.559Z,19.79
2023-03-06T09:29:47.214Z,19.92
2023-03-06T09:34:51.540Z,20.03
2023-03-06T09:39:54.252Z,20.13
2023-03-06T09:45:00.055Z,20.23
2023-03-06T09:50:33.377Z,20.30
2023-03-06T09:55:39.148Z,20.39
2023-03-06T10:00:47.782Z,20.47
2023-03-06T10:05:58.126Z,20.55
2023-03-06T10:11:03.638Z,20.63
2023-03-06T10:16:23.451Z,20.67
2023-03-06T10:21:38.576Z,20.73
2023-03-06T10:26:46.430Z,20.77
2023-03-06T10:31:56.706Z,20.83
2023-03-06T10:37:12.820Z,20.88
2023-03-06T10:42:15.682Z,20.91
2023-03-06T10:47:30.352Z,20.92
2023-03-06T10:52:36.151Z,20.92
2023-03-06T10:57:38.916Z,20.95
2023-03-06T11:02:41.811Z,20.98
2023-03-06T11:07:56.529Z,21.00
2023-03-06T11:13:01.375Z,21.01
2023-03-06T11:18:24.731Z,21.05
2023-03-06T11:23:37.764Z,21.07
2023-03-06T11:28:45.034Z,21.11
2023-03-06T11:33:52.382Z,21.20
2023-03-06T11:38:57.003Z,21.24
2023-03-06T11:44:07.326Z,21.27
2023-03-06T11:49:21.821Z,21.32
2023-03-06T11:54:26.072Z,21.34
2023-03-06T11:59:54.446Z,21.35
2023-03-06T12:05:08.300Z,21.32
2023-03-06T12:10:19.035Z,21.33
2023-03-06T12:15:36.150Z,21.34
2023-03-06T12:20:53.330Z,21.35
2023-03-06T12:26:10.449Z,21.33
2023-03-06T12:31:29.021Z,17.52
2023-03-06T12:36:42.676Z,15.83
2023-03-06T12:42:06.772Z,15.70
2023-03-06T12:47:15.742Z,17.29
2023-03-06T12:52:29.642Z,18.93
2023-03-06T12:57:34.330Z,19.52
2023-03-06T13:03:15.449Z,19.91
2023-03-06T13:08:52.714Z,20.06
2023-03-06T13:13:57.556Z,20.18
2023-03-06T13:19:11.284Z,20.29
2023-03-06T13:24:22.682Z,20.35
2023-03-06T13:30:01.878Z,20.41
2023-03-06T13:35:52.673Z,20.46
2023-03-06T13:41:35.418Z,20.49
2023-03-06T13:46:39.545Z,20.51
2023-03-06T13:51:44.214Z,20.53
2023-03-06T13:57:11.949Z,20.54
2023-03-06T14:02:36.796Z,20.57
2023-03-06T14:07:42.931Z,20.64
2023-03-06T14:13:02.864Z,20.66
2023-03-06T14:18:08.885Z,20.73
2023-03-06T14:23:25.243Z,20.78
2023-03-06T14:28:30.093Z,20.81
2023-03-06T14:33:43.972Z,20.85
2023-03-06T14:38:49.547Z,20.89
2023-03-06T14:43:52.409Z,20.32
2023-03-06T14:49:00.124Z,20.71
2023-03-06T14:54:03.500Z,20.81
2023-03-06T14:59:11.566Z,20.89
2023-03-06T15:04:26.947Z,20.94
2023-03-06T15:09:32.908Z,20.97
2023-03-06T15:14:38.495Z,20.98
2023-03-06T15:19:42.676Z,20.99
2023-03-06T15:24:45.354Z,21.00
2023-03-06T15:29:48.047Z,21.00
2023-03-06T15:35:29.100Z,21.02
2023-03-06T15:40:32.864Z,21.02
2023-03-06T15:45:36.293Z,21.02
2023-03-06T15:50:40.465Z,21.01
2023-03-06T15:55:43.510Z,21.02
2023-03-06T16:00:47.067Z,21.02
2023-03-06T16:05:51.290Z,21.01
2023-03-06T16:10:54.122Z,21.02
2023-03-06T16:15:56.998Z,21.01
2023-03-06T16:21:01.348Z,21.02
2023-03-06T16:26:04.624Z,21.01
2023-03-06T16:31:07.379Z,21.00
2023-03-06T16:36:15.822Z,21.00
2023-03-06T16:41:20.221Z,21.03
2023-03-06T16:46:25.475Z,21.01
2023-03-06T16:51:40.711Z,21.02
2023-03-06T16:56:43.514Z,21.05
2023-03-06T17:01:46.414Z,21.02
2023-03-06T17:06:52.498Z,21.04
2023-03-06T17:11:55.233Z,21.06
2023-03-06T17:16:58.675Z,21.09
2023-03-06T17:22:02.722Z,21.11
2023-03-06T17:27:05.522Z,21.10
2023-03-06T17:32:08.737Z,21.11
2023-03-06T17:37:13.004Z,21.10
2023-03-06T17:42:15.786Z,21.13
2023-03-06T17:47:18.500Z,21.18
2023-03-06T17:52:22.551Z,21.23
2023-03-06T17:57:25.271Z,21.27
2023-03-06T18:02:28.130Z,21.31
2023-03-06T18:07:32.198Z,21.37
2023-03-06T18:12:35.111Z,21.41
2023-03-06T18:17:38.512Z,21.43
2023-03-06T18:22:42.648Z,21.48
2023-03-06T18:27:45.324Z,21.52
2023-03-06T18:32:48.007Z,21.56
2023-03-06T18:37:52.107Z,21.58
2023-03-06T18:42:55.379Z,21.62
2023-03-06T18:47:58.186Z,21.61
2023-03-06T18:53:02.274Z,21.66
2023-03-06T18:58:04.989Z,21.68
2023-03-06T19:03:07.768Z,21.71
2023-03-06T19:08:12.670Z,21.73
2023-03-06T19:13:15.486Z,21.74
2023-03-06T19:18:18.866Z,21.76
2023-03-06T19:23:23.348Z,21.78
2023-03-06T19:28:27.186Z,21.82
2023-03-06T19:33:30.377Z,21.71
2023-03-06T19:38:34.659Z,21.54
2023-03-06T19:43:37.535Z,21.79
2023-03-06T19:48:40.590Z,21.91
2023-03-06T19:53:44.807Z,21.96
2023-03-06T19:58:47.557Z,21.99
2023-03-06T20:03:50.667Z,21.99
2023-03-06T20:08:55.058Z,22.00
2023-03-06T20:13:58.691Z,22.00
2023-03-06T20:19:02.666Z,22.02
2023-03-06T20:24:08.601Z,22.04
2023-03-06T20:29:11.948Z,22.04
2023-03-06T20:34:15.294Z,22.05
2023-03-06T20:39:21.574Z,22.08
2023-03-06T20:44:24.337Z,22.10
2023-03-06T20:49:28.393Z,22.13
2023-03-06T20:54:32.458Z,22.15
2023-03-06T20:59:35.445Z,22.12
2023-03-06T21:04:41.209Z,22.17
2023-03-06T21:09:45.380Z,22.03
2023-03-06T21:14:48.068Z,22.13
2023-03-06T21:19:51.851Z,22.23
2023-03-06T21:24:55.899Z,22.25
2023-03-06T21:29:58.628Z,22.28
2023-03-06T21:35:01.322Z,22.28
2023-03-06T21:40:07.432Z,22.30
2023-03-06T21:45:10.941Z,22.31
2023-03-06T21:50:13.960Z,22.32
2023-03-06T21:55:18.241Z,22.34
2023-03-06T22:00:23.270Z,22.33
2023-03-06T22:05:26.122Z,22.34
2023-03-06T22:10:30.272Z,22.34
2023-03-06T22:15:32.980Z,22.31
2023-03-06T22:20:35.695Z,22.31
2023-03-06T22:25:39.884Z,22.26
2023-03-06T22:30:42.833Z,22.24
2023-03-06T22:35:45.727Z,22.23
2023-03-06T22:40:49.789Z,22.22
2023-03-06T22:45:52.777Z,22.22
2023-03-06T22:50:55.530Z,22.18
2023-03-06T22:56:00.619Z,22.16
2023-03-06T23:01:08.153Z,22.14
2023-03-06T23:06:13.650Z,22.14
2023-03-06T23:11:19.440Z,22.11
2023-03-06T23:16:41.063Z,22.06
2023-03-06T23:22:02.469Z,22.04
2023-03-06T23:27:25.333Z,22.00
2023-03-06T23:32:28.148Z,21.97
2023-03-06T23:37:30.992Z,21.95
2023-03-06T23:42:35.311Z,21.90
2023-03-06T23:47:38.022Z,21.86
2023-03-06T23:52:41.231Z,21.83
2023-03-06T23:57:45.281Z,21.80
